createdAt,value
2018-04-27T00:00:06.604Z,14.90
2018-04-27T00:01:06.601Z,16.90
2018-04-27T00:02:06.611Z,16.10
2018-04-27T00:03:06.607Z,14.80
2018-04-27T00:04:06.616Z,15.30
2018-04-27T00:05:06.631Z,15.80
2018-04-27T00:06:06.619Z,16.20
2018-04-27T00:07:06.622Z,16.50
2018-04-27T00:08:09.250Z,15.70
2018-04-27T00:09:06.627Z,16.30
2018-04-27T00:10:06.624Z,16.40
2018-04-27T00:11:06.626Z,16.30
2018-04-27T00:12:06.631Z,17.50
2018-04-27T00:13:06.631Z,18.50
2018-04-27T00:14:06.637Z,16.70
2018-04-27T00:15:06.634Z,16.70
2018-04-27T00:16:06.649Z,17.20
2018-04-27T00:17:06.689Z,17.40
2018-04-27T00:18:06.633Z,16.70
2018-04-27T00:19:06.662Z,16.10
2018-04-27T00:20:06.642Z,17.40
2018-04-27T00:21:06.640Z,19.40
2018-04-27T00:22:06.641Z,17.00
2018-04-27T00:23:06.652Z,17.20
2018-04-27T00:24:06.658Z,17.40
2018-04-27T00:25:06.646Z,19.10
2018-04-27T00:26:06.652Z,17.70
2018-04-27T00:27:06.660Z,17.40
2018-04-27T00:28:06.664Z,17.00
2018-04-27T00:29:06.668Z,17.70
2018-04-27T00:30:06.679Z,19.50
2018-04-27T00:31:06.661Z,17.70
2018-04-27T00:32:06.668Z,17.10
2018-04-27T00:33:06.671Z,17.40
2018-04-27T00:34:06.677Z,17.20
2018-04-27T00:35:06.682Z,18.30
2018-04-27T00:36:06.687Z,18.10
2018-04-27T00:37:06.676Z,18.10
2018-04-27T00:38:06.681Z,18.30
2018-04-27T00:39:06.676Z,19.20
2018-04-27T00:40:06.685Z,17.70
2018-04-27T00:41:06.678Z,19.60
2018-04-27T00:42:06.688Z,21.10
2018-04-27T00:43:06.680Z,17.10
2018-04-27T00:44:06.683Z,17.20
2018-04-27T00:45:06.693Z,18.10
2018-04-27T00:46:06.688Z,17.60
2018-04-27T00:47:06.715Z,17.70
2018-04-27T00:48:06.702Z,17.50
2018-04-27T00:49:06.702Z,17.10
2018-04-27T00:50:06.710Z,19.10
2018-04-27T00:51:06.699Z,17.90
2018-04-27T00:52:06.708Z,17.90
2018-04-27T00:53:06.700Z,17.70
2018-04-27T00:54:06.706Z,18.00
2018-04-27T00:55:06.708Z,17.20
2018-04-27T00:56:06.741Z,18.70
2018-04-27T00:57:06.754Z,17.50
2018-04-27T00:58:06.712Z,20.20
2018-04-27T00:59:06.735Z,17.10
2018-04-27T01:00:06.723Z,18.90
2018-04-27T01:01:06.720Z,18.40
2018-04-27T01:02:06.723Z,17.40
2018-04-27T01:03:06.725Z,18.90
2018-04-27T01:04:06.727Z,17.50
2018-04-27T01:05:06.730Z,17.70
2018-04-27T01:06:06.725Z,18.90
2018-04-27T01:07:06.732Z,18.00
2018-04-27T01:08:06.735Z,17.20
2018-04-27T01:09:06.742Z,18.40
2018-04-27T01:10:06.734Z,17.80
2018-04-27T01:11:06.745Z,17.80
2018-04-27T01:12:06.746Z,17.90
2018-04-27T01:13:06.739Z,17.60
2018-04-27T01:14:06.744Z,19.30
2018-04-27T01:15:06.753Z,16.90
2018-04-27T01:16:06.751Z,18.00
2018-04-27T01:17:06.755Z,18.10
2018-04-27T01:18:06.759Z,18.60
2018-04-27T01:19:06.753Z,19.40
2018-04-27T01:20:06.761Z,17.60
2018-04-27T01:21:06.755Z,19.80
2018-04-27T01:22:06.765Z,18.60
2018-04-27T01:23:06.767Z,18.20
2018-04-27T01:24:06.773Z,17.40
2018-04-27T01:25:06.762Z,17.80
2018-04-27T01:26:06.775Z,22.40
2018-04-27T01:27:06.765Z,20.50
2018-04-27T01:28:06.771Z,17.60
2018-04-27T01:29:06.773Z,18.90
2018-04-27T01:30:06.778Z,19.10
2018-04-27T01:31:06.773Z,16.70
2018-04-27T01:32:06.785Z,16.90
2018-04-27T01:33:06.784Z,16.90
2018-04-27T01:34:06.785Z,16.70
2018-04-27T01:35:06.782Z,17.70
2018-04-27T01:36:07.767Z,16.40
2018-04-27T01:37:06.793Z,19.20
2018-04-27T01:38:06.793Z,17.80
2018-04-27T01:39:06.797Z,19.70
2018-04-27T01:40:06.793Z,17.40
2018-04-27T01:41:06.791Z,17.60
2018-04-27T01:42:06.792Z,17.00
2018-04-27T01:43:06.808Z,16.60
2018-04-27T01:44:06.802Z,20.00
2018-04-27T01:45:06.796Z,20.10
2018-04-27T01:46:06.803Z,16.70
2018-04-27T01:47:06.806Z,17.20
2018-04-27T01:48:06.831Z,17.60
2018-04-27T01:49:06.816Z,17.20
2018-04-27T01:50:06.810Z,15.80
2018-04-27T01:51:06.814Z,20.00
2018-04-27T01:52:06.817Z,16.60
2018-04-27T01:53:06.817Z,17.80
2018-04-27T01:54:06.817Z,15.50
2018-04-27T01:55:06.813Z,16.80
2018-04-27T01:56:07.770Z,17.40
2018-04-27T01:57:06.825Z,17.60
2018-04-27T01:58:06.834Z,18.10
2018-04-27T01:59:06.827Z,17.70
2018-04-27T02:00:06.824Z,16.80
2018-04-27T02:01:06.835Z,19.00
2018-04-27T02:02:06.836Z,17.00
2018-04-27T02:03:06.832Z,19.50
2018-04-27T02:04:06.838Z,17.80
2018-04-27T02:05:06.837Z,18.50
2018-04-27T02:06:06.840Z,18.60
2018-04-27T02:07:06.847Z,18.10
2018-04-27T02:08:06.842Z,17.30
2018-04-27T02:09:06.844Z,17.60
2018-04-27T02:10:06.835Z,19.20
2018-04-27T02:11:06.829Z,18.90
2018-04-27T02:12:06.839Z,17.30
2018-04-27T02:13:06.835Z,22.30
2018-04-27T02:14:06.836Z,20.00
2018-04-27T02:15:06.848Z,18.30
2018-04-27T02:16:06.853Z,17.00
2018-04-27T02:17:06.838Z,17.20
2018-04-27T02:18:06.842Z,17.80
2018-04-27T02:19:06.847Z,19.90
2018-04-27T02:20:06.848Z,17.50
2018-04-27T02:21:06.852Z,15.90
2018-04-27T02:22:06.851Z,17.70
2018-04-27T02:23:06.853Z,20.80
2018-04-27T02:24:06.858Z,16.50
2018-04-27T02:25:06.856Z,20.40
2018-04-27T02:26:06.863Z,19.00
2018-04-27T02:27:06.859Z,19.40
2018-04-27T02:28:06.859Z,18.40
2018-04-27T02:29:06.864Z,19.80
2018-04-27T02:30:06.863Z,19.70
2018-04-27T02:31:06.866Z,20.00
2018-04-27T02:32:06.863Z,22.40
2018-04-27T02:33:06.877Z,18.50
2018-04-27T02:34:06.872Z,18.60
2018-04-27T02:35:06.882Z,19.50
2018-04-27T02:36:06.879Z,18.80
2018-04-27T02:37:06.874Z,18.70
2018-04-27T02:38:06.882Z,17.90
2018-04-27T02:39:06.890Z,18.90
2018-04-27T02:40:06.884Z,18.10
2018-04-27T02:41:06.881Z,20.00
2018-04-27T02:42:06.883Z,19.60
2018-04-27T02:43:06.880Z,16.10
2018-04-27T02:44:06.886Z,17.00
2018-04-27T02:45:06.885Z,21.10
2018-04-27T02:46:06.890Z,17.60
2018-04-27T02:47:06.888Z,19.10
2018-04-27T02:48:06.898Z,16.90
2018-04-27T02:49:06.889Z,19.50
2018-04-27T02:50:06.901Z,21.30
2018-04-27T02:51:06.892Z,21.50
2018-04-27T02:52:06.902Z,19.00
2018-04-27T02:53:06.903Z,18.20
2018-04-27T02:54:06.898Z,17.50
2018-04-27T02:55:06.905Z,18.10
2018-04-27T02:57:06.904Z,19.40
2018-04-27T02:59:06.916Z,18.70
2018-04-27T03:00:06.913Z,17.10
2018-04-27T03:01:06.910Z,17.70
2018-04-27T03:02:06.921Z,17.90
2018-04-27T03:03:06.913Z,18.60
2018-04-27T03:04:06.919Z,18.80
2018-04-27T03:05:06.921Z,20.00
2018-04-27T03:06:06.920Z,17.90
2018-04-27T03:07:06.935Z,19.50
2018-04-27T03:08:06.924Z,18.50
2018-04-27T03:09:06.923Z,18.70
2018-04-27T03:10:06.929Z,20.30
2018-04-27T03:11:06.928Z,18.10
2018-04-27T03:12:06.935Z,17.50
2018-04-27T03:13:06.941Z,19.00
2018-04-27T03:14:06.933Z,19.00
2018-04-27T03:15:06.940Z,16.20
2018-04-27T03:16:06.942Z,17.70
2018-04-27T03:17:06.935Z,18.30
2018-04-27T03:18:06.945Z,20.50
2018-04-27T03:19:06.937Z,17.80
2018-04-27T03:20:06.937Z,17.20
2018-04-27T03:21:06.950Z,18.40
2018-04-27T03:22:06.948Z,22.70
2018-04-27T03:23:06.954Z,20.30
2018-04-27T03:24:07.065Z,18.90
2018-04-27T03:25:06.953Z,16.50
2018-04-27T03:26:06.962Z,19.70
2018-04-27T03:27:06.956Z,19.20
2018-04-27T03:28:06.956Z,15.90
2018-04-27T03:29:06.957Z,19.30
2018-04-27T03:30:06.956Z,17.70
2018-04-27T03:31:06.970Z,18.50
2018-04-27T03:32:06.956Z,18.00
2018-04-27T03:33:06.968Z,19.80
2018-04-27T03:34:06.969Z,19.00
2018-04-27T03:35:06.965Z,17.80
2018-04-27T03:36:06.972Z,16.40
2018-04-27T03:37:06.965Z,16.00
2018-04-27T03:38:06.971Z,17.00
2018-04-27T03:39:06.974Z,19.90
2018-04-27T03:40:06.983Z,18.90
2018-04-27T03:41:06.980Z,18.30
2018-04-27T03:42:06.984Z,18.20
2018-04-27T03:43:06.981Z,20.70
2018-04-27T03:44:06.983Z,17.40
2018-04-27T03:45:07.027Z,17.40
2018-04-27T03:46:06.982Z,20.60
2018-04-27T03:47:06.985Z,17.20
2018-04-27T03:48:06.996Z,18.20
2018-04-27T03:49:06.984Z,17.50
2018-04-27T03:50:07.028Z,18.00
2018-04-27T03:51:06.987Z,17.80
2018-04-27T03:52:06.988Z,18.80
2018-04-27T03:53:06.996Z,17.90
2018-04-27T03:54:06.992Z,17.20
2018-04-27T03:55:07.005Z,16.80
2018-04-27T03:56:07.003Z,16.80
2018-04-27T03:57:06.995Z,17.50
2018-04-27T03:58:07.000Z,16.30
2018-04-27T03:59:07.000Z,18.20
2018-04-27T04:00:07.002Z,16.60
2018-04-27T04:01:07.016Z,16.50
2018-04-27T04:02:07.002Z,15.50
2018-04-27T04:03:07.013Z,17.90
2018-04-27T04:04:07.006Z,19.70
2018-04-27T04:05:07.015Z,18.00
2018-04-27T04:06:07.013Z,16.30
2018-04-27T04:07:07.023Z,16.80
2018-04-27T04:08:07.019Z,15.00
2018-04-27T04:09:07.014Z,15.80
2018-04-27T04:10:07.024Z,17.10
2018-04-27T04:11:07.018Z,17.30
2018-04-27T04:12:07.032Z,17.80
2018-04-27T04:13:07.025Z,19.20
2018-04-27T04:14:07.027Z,16.20
2018-04-27T04:15:07.030Z,15.40
2018-04-27T04:16:07.035Z,16.20
2018-04-27T04:17:07.036Z,17.10
2018-04-27T04:18:07.031Z,16.30
2018-04-27T04:19:07.035Z,18.60
2018-04-27T04:20:07.041Z,17.60
2018-04-27T04:21:07.032Z,16.00
2018-04-27T04:22:07.039Z,14.10
2018-04-27T04:23:07.042Z,16.90
2018-04-27T04:24:07.039Z,16.10
2018-04-27T04:25:07.048Z,18.10
2018-04-27T04:26:07.047Z,18.30
2018-04-27T04:27:07.051Z,18.40
2018-04-27T04:28:07.052Z,18.10
2018-04-27T04:29:07.060Z,17.90
2018-04-27T04:30:07.794Z,17.00
2018-04-27T04:31:07.075Z,16.90
2018-04-27T04:32:07.054Z,20.50
2018-04-27T04:33:07.053Z,18.50
2018-04-27T04:34:07.051Z,17.30
2018-04-27T04:35:07.061Z,16.50
2018-04-27T04:36:07.063Z,18.70
2018-04-27T04:37:07.060Z,16.40
2018-04-27T04:38:07.073Z,15.00
2018-04-27T04:39:07.068Z,16.40
2018-04-27T04:40:07.067Z,17.90
2018-04-27T04:41:07.069Z,15.30
2018-04-27T04:42:07.413Z,17.90
2018-04-27T04:43:07.336Z,17.40
2018-04-27T04:44:08.598Z,20.70
2018-04-27T04:45:07.087Z,19.40
2018-04-27T04:46:07.136Z,18.20
2018-04-27T04:47:07.088Z,14.00
2018-04-27T04:48:07.088Z,18.00
2018-04-27T04:49:07.085Z,15.20
2018-04-27T04:50:07.084Z,15.40
2018-04-27T04:51:08.356Z,16.90
2018-04-27T04:52:07.085Z,17.80
2018-04-27T04:53:07.086Z,16.80
2018-04-27T04:54:07.097Z,18.70
2018-04-27T04:55:07.096Z,19.00
2018-04-27T04:56:07.089Z,18.90
2018-04-27T04:57:07.102Z,14.50
2018-04-27T04:58:07.098Z,16.00
2018-04-27T04:59:07.789Z,15.10
2018-04-27T05:00:07.103Z,20.70
2018-04-27T05:01:07.100Z,17.20
2018-04-27T05:02:07.097Z,17.80
2018-04-27T05:03:07.101Z,16.50
2018-04-27T05:04:07.107Z,16.90
2018-04-27T05:05:07.108Z,15.40
2018-04-27T05:06:07.109Z,15.00
2018-04-27T05:07:07.108Z,15.50
2018-04-27T05:08:07.112Z,16.90
2018-04-27T05:09:07.148Z,17.40
2018-04-27T05:10:07.113Z,19.50
2018-04-27T05:11:07.117Z,17.30
2018-04-27T05:12:07.117Z,15.90
2018-04-27T05:13:07.122Z,18.20
2018-04-27T05:14:07.121Z,15.80
2018-04-27T05:15:07.118Z,18.30
2018-04-27T05:16:07.127Z,16.60
2018-04-27T05:17:07.120Z,15.10
2018-04-27T05:18:07.135Z,15.40
2018-04-27T05:19:07.131Z,17.40
2018-04-27T05:20:07.126Z,17.50
2018-04-27T05:21:07.133Z,16.60
2018-04-27T05:22:07.161Z,14.70
2018-04-27T05:23:07.139Z,16.70
2018-04-27T05:24:07.140Z,13.20
2018-04-27T05:25:07.159Z,20.10
2018-04-27T05:26:07.143Z,15.10
2018-04-27T05:27:07.140Z,14.60
2018-04-27T05:28:07.150Z,14.50
2018-04-27T05:29:07.151Z,17.00
2018-04-27T05:30:07.151Z,17.70
2018-04-27T05:31:07.144Z,17.30
2018-04-27T05:32:07.149Z,16.80
2018-04-27T05:33:07.159Z,16.20
2018-04-27T05:34:07.156Z,18.30
2018-04-27T05:35:07.161Z,17.10
2018-04-27T05:36:07.168Z,16.70
2018-04-27T05:37:07.169Z,19.80
2018-04-27T05:38:07.161Z,18.00
2018-04-27T05:39:07.165Z,20.40
2018-04-27T05:40:07.202Z,21.30
2018-04-27T05:41:07.184Z,18.00
2018-04-27T05:42:07.179Z,15.70
2018-04-27T05:43:07.167Z,17.40
2018-04-27T05:44:07.182Z,21.70
2018-04-27T05:45:07.179Z,20.00
2018-04-27T05:46:07.182Z,17.30
2018-04-27T05:47:07.178Z,17.30
2018-04-27T05:48:07.185Z,19.50
2018-04-27T05:49:07.185Z,14.10
2018-04-27T05:50:07.189Z,22.70
2018-04-27T05:51:07.183Z,16.10
2018-04-27T05:52:07.194Z,14.70
2018-04-27T05:53:07.197Z,16.70
2018-04-27T05:54:07.193Z,16.60
2018-04-27T05:55:07.200Z,23.10
2018-04-27T05:56:07.199Z,15.30
2018-04-27T05:57:07.213Z,17.30
2018-04-27T05:58:07.208Z,14.50
2018-04-27T05:59:07.811Z,17.20
2018-04-27T06:00:07.228Z,13.20
2018-04-27T06:02:00.170Z,16.40
2018-04-27T06:03:00.141Z,13.70
2018-04-27T06:04:53.919Z,17.50
2018-04-27T06:05:53.992Z,13.50
2018-04-27T06:06:53.926Z,15.00
2018-04-27T06:07:53.928Z,14.60
2018-04-27T06:08:53.938Z,14.50
2018-04-27T06:09:53.942Z,14.80
2018-04-27T06:10:53.951Z,13.90
2018-04-27T06:11:53.969Z,14.40
2018-04-27T06:12:53.966Z,15.80
2018-04-27T06:13:53.975Z,16.60
2018-04-27T06:14:53.984Z,12.60
2018-04-27T06:15:53.998Z,13.90
2018-04-27T06:16:54.009Z,16.00
2018-04-27T06:17:54.016Z,14.20
2018-04-27T06:18:54.021Z,14.70
2018-04-27T06:19:54.039Z,14.20
2018-04-27T06:20:54.043Z,16.90
2018-04-27T06:21:54.072Z,11.90
2018-04-27T06:22:54.073Z,10.10
2018-04-27T06:23:54.118Z,12.10
2018-04-27T06:24:54.105Z,14.50
2018-04-27T06:25:54.100Z,11.60
2018-04-27T06:26:54.115Z,14.70
2018-04-27T06:27:54.187Z,13.60
2018-04-27T06:28:54.191Z,10.40
2018-04-27T06:29:54.137Z,14.00
2018-04-27T06:30:54.218Z,14.20
2018-04-27T06:31:54.222Z,12.40
2018-04-27T06:32:54.178Z,13.60
2018-04-27T06:33:54.210Z,15.50
2018-04-27T06:34:54.204Z,10.00
2018-04-27T06:35:54.210Z,13.80
2018-04-27T06:36:54.218Z,12.20
2018-04-27T06:37:54.241Z,11.00
2018-04-27T06:38:54.242Z,14.30
2018-04-27T06:39:54.261Z,10.90
2018-04-27T06:40:54.270Z,12.90
2018-04-27T06:41:54.280Z,12.30
2018-04-27T06:57:04.782Z,12.20
2018-04-27T06:58:04.759Z,11.50
2018-04-27T06:59:58.223Z,12.90
2018-04-27T07:00:57.722Z,12.40
2018-04-27T07:01:57.746Z,12.20
2018-04-27T07:02:57.738Z,14.30
2018-04-27T07:03:57.748Z,12.80
2018-04-27T07:04:57.757Z,12.80
2018-04-27T07:05:57.773Z,8.70
2018-04-27T07:06:57.783Z,12.00
2018-04-27T07:07:57.800Z,10.40
2018-04-27T07:08:57.814Z,8.70
2018-04-27T07:09:57.821Z,11.40
2018-04-27T07:10:57.855Z,8.80
2018-04-27T07:11:57.871Z,11.00
2018-04-27T07:12:57.872Z,11.40
2018-04-27T07:13:57.877Z,10.10
2018-04-27T07:14:58.633Z,9.30
2018-04-27T07:15:57.915Z,7.60
2018-04-27T07:16:57.953Z,9.70
2018-04-27T07:17:57.938Z,12.50
2018-04-27T07:18:59.711Z,11.90
2018-04-27T07:19:57.967Z,11.90
2018-04-27T07:20:57.985Z,10.70
2018-04-27T07:21:58.644Z,9.60
2018-04-27T07:22:58.011Z,11.50
2018-04-27T07:23:58.046Z,15.80
2018-04-27T07:24:58.050Z,12.80
2018-04-27T07:25:58.146Z,11.60
2018-04-27T07:26:58.088Z,12.60
2018-04-27T07:27:58.085Z,9.70
2018-04-27T07:28:58.102Z,10.80
2018-04-27T07:29:58.116Z,8.90
2018-04-27T07:30:58.130Z,9.70
2018-04-27T07:31:58.149Z,8.40
2018-04-27T07:32:58.167Z,10.40
2018-04-27T07:33:58.177Z,9.90
2018-04-27T07:34:58.301Z,12.40
2018-04-27T07:35:58.209Z,9.20
2018-04-27T07:36:58.229Z,11.30
2018-04-27T07:37:58.296Z,12.70
2018-04-27T07:38:58.255Z,12.20
2018-04-27T07:39:58.291Z,9.70
2018-04-27T07:40:58.280Z,11.40
2018-04-27T07:41:58.301Z,10.70
2018-04-27T07:42:58.316Z,11.90
2018-04-27T07:43:58.326Z,11.10
2018-04-27T07:44:58.349Z,9.60
2018-04-27T07:45:58.355Z,10.60
2018-04-27T07:46:58.374Z,10.30
2018-04-27T07:47:58.389Z,9.70
2018-04-27T07:48:58.404Z,9.60
2018-04-27T07:49:58.427Z,11.50
2018-04-27T07:50:58.434Z,10.10
2018-04-27T07:51:58.473Z,8.30
2018-04-27T07:52:58.468Z,10.80
2018-04-27T07:53:58.489Z,8.80
2018-04-27T07:54:58.498Z,9.50
2018-04-27T07:56:58.528Z,9.60
2018-04-27T07:57:58.554Z,7.50
2018-04-27T07:58:58.566Z,12.80
2018-04-27T07:59:58.578Z,9.00
2018-04-27T08:00:58.666Z,9.60
2018-04-27T08:01:58.618Z,11.10
2018-04-27T08:02:58.653Z,9.30
2018-04-27T08:03:58.647Z,8.60
2018-04-27T08:04:58.665Z,9.70
2018-04-27T08:05:58.680Z,8.80
2018-04-27T08:06:58.692Z,8.70
2018-04-27T08:07:58.705Z,11.20
2018-04-27T08:08:58.724Z,7.40
2018-04-27T08:09:58.736Z,10.10
2018-04-27T08:10:58.750Z,8.00
2018-04-27T08:11:58.771Z,23.50
2018-04-27T08:12:58.788Z,16.40
2018-04-27T08:13:58.800Z,9.30
2018-04-27T08:14:58.812Z,13.00
2018-04-27T08:15:58.832Z,7.90
2018-04-27T08:16:58.840Z,9.70
2018-04-27T08:17:58.864Z,10.40
2018-04-27T08:18:58.876Z,12.30
2018-04-27T08:19:58.893Z,8.00
2018-04-27T08:20:58.901Z,10.10
2018-04-27T08:21:58.913Z,8.80
2018-04-27T08:22:58.936Z,7.70
2018-04-27T08:23:58.946Z,7.50
2018-04-27T08:24:58.961Z,8.30
2018-04-27T08:25:58.992Z,8.30
2018-04-27T08:26:58.994Z,10.90
2018-04-27T08:27:59.003Z,8.30
2018-04-27T08:28:59.022Z,9.20
2018-04-27T08:29:59.038Z,9.10
2018-04-27T08:30:59.053Z,8.80
2018-04-27T08:31:59.065Z,7.50
2018-04-27T08:32:59.079Z,6.50
2018-04-27T08:33:59.095Z,9.10
2018-04-27T08:34:59.118Z,7.00
2018-04-27T08:35:59.120Z,7.50
2018-04-27T08:36:59.134Z,9.50
2018-04-27T08:37:59.149Z,7.80
2018-04-27T08:38:59.161Z,8.30
2018-04-27T08:39:59.179Z,8.00
2018-04-27T08:40:59.195Z,8.60
2018-04-27T08:41:59.228Z,7.40
2018-04-27T08:42:59.216Z,10.20
2018-04-27T08:43:59.238Z,10.30
2018-04-27T08:44:59.246Z,10.30
2018-04-27T08:45:59.265Z,8.10
2018-04-27T08:46:59.273Z,8.70
2018-04-27T08:47:59.292Z,6.70
2018-04-27T08:48:59.306Z,7.70
2018-04-27T08:49:59.317Z,9.10
2018-04-27T08:50:59.323Z,7.90
2018-04-27T08:51:59.343Z,9.50
2018-04-27T08:52:59.364Z,8.20
2018-04-27T08:53:59.373Z,7.80
2018-04-27T08:54:59.379Z,6.60
2018-04-27T08:55:59.389Z,8.60
2018-04-27T08:56:59.406Z,9.20
2018-04-27T08:57:59.419Z,8.90
2018-04-27T08:58:59.421Z,10.80
2018-04-27T08:59:59.435Z,8.30
2018-04-27T09:00:59.445Z,7.50
2018-04-27T09:01:59.454Z,7.10
2018-04-27T09:02:59.465Z,11.60
2018-04-27T09:03:59.481Z,9.40
2018-04-27T09:04:59.487Z,10.80
2018-04-27T09:05:59.501Z,9.00
2018-04-27T09:06:59.512Z,9.50
2018-04-27T09:07:59.520Z,8.20
2018-04-27T09:08:59.532Z,10.90
2018-04-27T09:09:59.540Z,9.40
2018-04-27T09:10:59.549Z,10.00
2018-04-27T09:11:59.567Z,10.40
2018-04-27T09:12:59.598Z,8.50
2018-04-27T09:13:59.581Z,10.20
2018-04-27T09:14:59.590Z,8.40
2018-04-27T09:15:59.609Z,9.80
2018-04-27T09:16:59.612Z,10.30
2018-04-27T09:17:59.626Z,8.90
2018-04-27T09:18:59.640Z,6.90
2018-04-27T09:19:59.652Z,9.50
2018-04-27T09:20:59.657Z,9.80
2018-04-27T09:21:59.667Z,6.80
2018-04-27T09:22:59.703Z,8.80
2018-04-27T09:23:59.687Z,8.00
2018-04-27T09:24:59.691Z,11.00
2018-04-27T09:25:59.699Z,11.10
2018-04-27T09:26:59.738Z,10.60
2018-04-27T09:27:59.727Z,8.80
2018-04-27T09:28:59.742Z,9.60
2018-04-27T09:29:59.746Z,8.90
2018-04-27T09:30:59.758Z,11.40
2018-04-27T09:31:59.761Z,9.70
2018-04-27T09:32:59.774Z,8.80
2018-04-27T09:33:59.789Z,9.10
2018-04-27T09:34:59.804Z,11.20
2018-04-27T09:35:59.810Z,7.30
2018-04-27T09:36:59.823Z,12.20
2018-04-27T09:37:59.822Z,10.20
2018-04-27T09:38:59.836Z,11.80
2018-04-27T09:39:59.853Z,12.00
2018-04-27T09:40:59.864Z,9.70
2018-04-27T09:41:59.875Z,9.80
2018-04-27T09:42:59.883Z,10.50
2018-04-27T09:43:59.962Z,7.60
2018-04-27T09:44:59.909Z,9.00
2018-04-27T09:45:59.914Z,7.90
2018-04-27T09:46:59.925Z,8.20
2018-04-27T09:47:59.944Z,10.50
2018-04-27T09:48:59.976Z,8.90
2018-04-27T09:49:59.966Z,7.40
2018-04-27T09:50:59.982Z,7.50
2018-04-27T09:51:59.983Z,10.30
2018-04-27T09:52:59.997Z,11.10
2018-04-27T09:54:00.019Z,9.20
2018-04-27T09:55:00.023Z,8.00
2018-04-27T09:56:00.033Z,8.70
2018-04-27T09:57:00.052Z,10.50
2018-04-27T09:58:00.052Z,9.60
2018-04-27T09:59:00.063Z,7.50
2018-04-27T10:00:00.082Z,8.70
2018-04-27T10:01:00.090Z,10.00
2018-04-27T10:02:00.108Z,9.80
2018-04-27T10:03:00.118Z,8.10
2018-04-27T10:04:00.121Z,13.60
2018-04-27T10:05:00.143Z,9.10
2018-04-27T10:06:00.148Z,14.20
2018-04-27T10:07:00.157Z,9.90
2018-04-27T10:08:00.177Z,10.70
2018-04-27T10:09:00.183Z,9.80
2018-04-27T10:10:00.199Z,7.50
2018-04-27T10:11:00.242Z,9.40
2018-04-27T10:12:00.261Z,9.40
2018-04-27T10:13:00.263Z,11.60
2018-04-27T10:14:00.290Z,9.60
2018-04-27T10:15:00.326Z,9.80
2018-04-27T10:16:00.279Z,9.40
2018-04-27T10:17:00.297Z,9.30
2018-04-27T10:18:00.301Z,7.80
2018-04-27T10:19:00.304Z,11.30
2018-04-27T10:20:00.322Z,8.30
2018-04-27T10:21:00.346Z,9.30
2018-04-27T10:22:00.338Z,8.10
2018-04-27T10:23:00.366Z,9.40
2018-04-27T10:24:01.294Z,9.30
2018-04-27T10:25:00.416Z,11.70
2018-04-27T10:26:00.399Z,10.20
2018-04-27T10:27:00.398Z,10.20
2018-04-27T10:28:00.414Z,13.60
2018-04-27T10:29:00.417Z,10.20
2018-04-27T10:30:00.427Z,10.10
2018-04-27T10:31:00.451Z,8.70
2018-04-27T10:32:00.454Z,11.60
2018-04-27T10:33:00.531Z,7.40
2018-04-27T10:34:00.490Z,8.20
2018-04-27T10:35:00.508Z,10.40
2018-04-27T10:36:00.505Z,9.80
2018-04-27T10:37:00.541Z,10.50
2018-04-27T10:38:00.542Z,11.00
2018-04-27T10:39:00.550Z,10.10
2018-04-27T10:40:00.550Z,9.50
2018-04-27T10:41:00.566Z,10.90
2018-04-27T10:42:00.573Z,8.80
2018-04-27T10:43:00.680Z,8.30
2018-04-27T10:44:00.616Z,10.90
2018-04-27T10:45:00.615Z,10.90
2018-04-27T10:46:00.641Z,9.70
2018-04-27T10:47:00.634Z,8.70
2018-04-27T10:48:00.644Z,10.70
2018-04-27T10:49:00.654Z,10.00
2018-04-27T10:50:00.674Z,10.70
2018-04-27T10:51:00.682Z,11.00
2018-04-27T10:52:00.709Z,8.90
2018-04-27T10:53:00.743Z,11.00
2018-04-27T10:54:00.716Z,11.40
2018-04-27T10:55:00.755Z,10.40
2018-04-27T10:56:00.772Z,10.70
2018-04-27T10:57:00.775Z,12.90
2018-04-27T10:58:00.779Z,9.00
2018-04-27T10:59:00.783Z,10.80
2018-04-27T11:00:00.794Z,8.30
2018-04-27T11:01:00.812Z,13.70
2018-04-27T11:02:00.813Z,10.60
2018-04-27T11:03:00.829Z,8.80
2018-04-27T11:04:00.852Z,7.60
2018-04-27T11:05:00.870Z,10.90
2018-04-27T11:06:00.870Z,70.90
2018-04-27T11:07:00.878Z,11.60
2018-04-27T11:08:00.892Z,10.40
2018-04-27T11:09:00.899Z,11.20
2018-04-27T11:10:00.921Z,10.70
2018-04-27T11:11:01.913Z,13.20
2018-04-27T11:12:00.939Z,9.00
2018-04-27T11:13:00.954Z,10.80
2018-04-27T11:14:00.959Z,8.10
2018-04-27T11:15:00.967Z,13.30
2018-04-27T11:16:00.992Z,10.70
2018-04-27T11:17:01.061Z,10.90
2018-04-27T11:18:01.008Z,10.00
2018-04-27T11:19:01.069Z,9.70
2018-04-27T11:20:01.030Z,10.20
2018-04-27T11:21:01.037Z,9.80
2018-04-27T11:22:01.058Z,10.60
2018-04-27T11:23:01.065Z,9.00
2018-04-27T11:24:01.067Z,8.60
2018-04-27T11:25:01.114Z,11.50
2018-04-27T11:26:01.092Z,8.80
2018-04-27T11:27:01.109Z,9.80
2018-04-27T11:28:01.113Z,8.50
2018-04-27T11:29:01.131Z,8.30
2018-04-27T11:30:01.155Z,7.60
2018-04-27T11:31:01.152Z,8.30
2018-04-27T11:32:01.157Z,8.50
2018-04-27T11:33:01.231Z,8.90
2018-04-27T11:34:01.177Z,8.70
2018-04-27T11:35:01.190Z,8.90
2018-04-27T11:36:01.210Z,9.10
2018-04-27T11:37:01.272Z,9.30
2018-04-27T11:38:01.267Z,9.40
2018-04-27T11:39:01.256Z,10.10
2018-04-27T11:40:01.307Z,10.70
2018-04-27T11:41:01.315Z,8.90
2018-04-27T11:42:01.328Z,8.60
2018-04-27T11:43:01.311Z,10.90
2018-04-27T11:44:01.320Z,8.30
2018-04-27T11:45:01.356Z,10.20
2018-04-27T11:46:01.345Z,12.00
2018-04-27T11:47:01.364Z,8.60
2018-04-27T11:48:01.329Z,8.80
2018-04-27T11:49:01.377Z,13.00
2018-04-27T11:50:01.391Z,10.30
2018-04-27T11:51:01.407Z,9.50
2018-04-27T11:52:01.414Z,10.10
2018-04-27T11:53:01.408Z,11.00
2018-04-27T11:54:01.375Z,7.00
2018-04-27T11:55:01.376Z,8.50
2018-04-27T11:56:01.389Z,7.40
2018-04-27T11:57:01.399Z,7.60
2018-04-27T11:58:01.404Z,10.50
2018-04-27T11:59:01.412Z,10.00
2018-04-27T12:00:01.440Z,10.00
2018-04-27T12:01:01.437Z,10.00
2018-04-27T12:02:01.452Z,12.90
2018-04-27T12:03:01.452Z,10.60
2018-04-27T12:04:01.463Z,8.80
2018-04-27T12:05:01.477Z,12.30
2018-04-27T12:06:01.480Z,8.40
2018-04-27T12:07:01.495Z,9.50
2018-04-27T12:08:01.504Z,8.90
2018-04-27T12:09:01.506Z,7.90
2018-04-27T12:10:01.529Z,7.60
2018-04-27T12:11:01.524Z,7.80
2018-04-27T12:12:01.543Z,11.40
2018-04-27T12:13:01.552Z,7.70
2018-04-27T12:14:01.550Z,7.80
2018-04-27T12:15:01.563Z,10.30
2018-04-27T12:16:01.576Z,12.10
2018-04-27T12:17:01.577Z,9.20
2018-04-27T12:18:01.595Z,8.50
2018-04-27T12:19:01.663Z,8.70
2018-04-27T12:20:01.614Z,7.70
2018-04-27T12:21:01.618Z,14.30
2018-04-27T12:22:01.622Z,6.80
2018-04-27T12:23:01.643Z,7.60
2018-04-27T12:24:01.644Z,8.10
2018-04-27T12:25:01.653Z,8.30
2018-04-27T12:26:01.664Z,7.10
2018-04-27T12:27:01.679Z,8.30
2018-04-27T12:28:01.683Z,7.80
2018-04-27T12:29:01.692Z,8.80
2018-04-27T12:30:01.696Z,7.80
2018-04-27T12:31:01.729Z,6.60
2018-04-27T12:32:01.713Z,8.00
2018-04-27T12:33:01.729Z,9.30
2018-04-27T12:34:01.728Z,8.40
2018-04-27T12:35:01.751Z,9.00
2018-04-27T12:36:01.751Z,8.30
2018-04-27T12:37:01.762Z,9.30
2018-04-27T12:38:01.780Z,6.70
2018-04-27T12:39:01.778Z,7.80
2018-04-27T12:40:01.786Z,8.00
2018-04-27T12:41:01.794Z,7.20
2018-04-27T12:42:01.825Z,6.60
2018-04-27T12:43:01.809Z,6.90
2018-04-27T12:44:01.817Z,8.30
2018-04-27T12:45:01.862Z,6.90
2018-04-27T12:46:01.841Z,7.50
2018-04-27T12:47:01.840Z,5.90
2018-04-27T12:48:01.851Z,8.80
2018-04-27T12:49:01.857Z,7.30
2018-04-27T12:50:01.881Z,5.90
2018-04-27T12:51:01.869Z,6.40
2018-04-27T12:52:01.881Z,7.00
2018-04-27T12:53:01.890Z,7.30
2018-04-27T12:54:01.904Z,8.40
2018-04-27T12:55:01.905Z,8.30
2018-04-27T12:56:01.933Z,6.50
2018-04-27T12:57:01.924Z,5.90
2018-04-27T12:58:01.937Z,5.70
2018-04-27T12:59:01.944Z,7.30
2018-04-27T13:00:01.949Z,8.10
2018-04-27T13:01:02.856Z,6.40
2018-04-27T13:02:01.966Z,6.30
2018-04-27T13:03:01.969Z,7.10
2018-04-27T13:04:01.984Z,8.20
2018-04-27T13:05:02.040Z,7.20
2018-04-27T13:06:02.006Z,7.90
2018-04-27T13:07:02.003Z,6.20
2018-04-27T13:08:02.078Z,9.20
2018-04-27T13:09:02.017Z,6.60
2018-04-27T13:10:02.035Z,7.50
2018-04-27T13:11:02.041Z,11.50
2018-04-27T13:12:02.049Z,7.90
2018-04-27T13:13:02.049Z,7.20
2018-04-27T13:14:02.064Z,7.80
2018-04-27T13:15:02.071Z,8.00
2018-04-27T13:16:02.211Z,7.50
2018-04-27T13:17:02.087Z,7.10
2018-04-27T13:18:02.088Z,8.90
2018-04-27T13:19:02.125Z,5.30
2018-04-27T13:20:02.106Z,6.10